createdAt,value
2022-12-24T00:00:29.846Z,99471.13
2022-12-24T00:05:32.879Z,99475.41
2022-12-24T00:10:35.881Z,99479.69
2022-12-24T00:15:38.771Z,99478.88
2022-12-24T00:20:41.969Z,99472.78
2022-12-24T00:25:45.934Z,99471.13
2022-12-24T00:30:48.735Z,99471.81
2022-12-24T00:35:53.307Z,99474.31
2022-12-24T00:41:01.761Z,99484.81
2022-12-24T00:46:05.273Z,99466.31
2022-12-24T00:51:08.458Z,99485.78
2022-12-24T00:56:11.454Z,99479.44
2022-12-24T01:01:15.661Z,99451.41
2022-12-24T01:06:21.641Z,99446.00
2022-12-24T01:11:25.331Z,99438.94
2022-12-24T01:16:28.254Z,99456.50
2022-12-24T01:21:31.208Z,99444.88
2022-12-24T01:26:34.289Z,99437.84
2022-12-24T01:31:37.525Z,99429.97
2022-12-24T01:36:40.888Z,99412.28
2022-12-24T01:42:03.121Z,99420.03
2022-12-24T01:47:25.791Z,99406.75
2022-12-24T01:52:34.700Z,99386.59
2022-12-24T01:57:48.236Z,99415.59
2022-12-24T02:02:54.135Z,99432.47
2022-12-24T02:07:59.787Z,99418.63
2022-12-24T02:13:04.311Z,99415.34
2022-12-24T02:18:52.227Z,99431.91
2022-12-24T02:24:29.069Z,99446.41
2022-12-24T02:30:05.756Z,99440.34
2022-12-24T02:35:12.899Z,99446.41
2022-12-24T02:40:23.631Z,99446.69
2022-12-24T02:45:31.821Z,99441.72
2022-12-24T02:50:36.046Z,99456.50
2022-12-24T02:56:08.210Z,99451.25
2022-12-24T03:01:29.300Z,99453.47
2022-12-24T03:06:52.645Z,99449.59
2022-12-24T03:12:10.176Z,99441.16
2022-12-24T03:17:13.695Z,99429.25
2022-12-24T03:22:18.142Z,99407.44
2022-12-24T03:27:21.699Z,99407.84
2022-12-24T03:32:31.039Z,99422.09
2022-12-24T03:37:34.165Z,99421.13
2022-12-24T03:42:37.205Z,99433.31
2022-12-24T03:47:40.335Z,99448.91
2022-12-24T03:52:44.110Z,99447.91
2022-12-24T03:57:47.168Z,99454.81
2022-12-24T04:02:50.136Z,99436.16
2022-12-24T04:07:53.230Z,99425.53
2022-12-24T04:12:56.175Z,99432.28
2022-12-24T04:17:59.062Z,99440.19
2022-12-24T04:23:01.874Z,99432.91
2022-12-24T04:28:04.846Z,99439.94
2022-12-24T04:33:07.860Z,99426.47
2022-12-24T04:38:11.196Z,99424.53
2022-12-24T04:43:14.583Z,99424.25
2022-12-24T04:48:17.481Z,99415.06
2022-12-24T04:53:20.466Z,99442.19
2022-12-24T04:58:23.491Z,99452.09
2022-12-24T05:03:27.273Z,99437.91
2022-12-24T05:08:30.211Z,99437.41
2022-12-24T05:13:44.155Z,99440.56
2022-12-24T05:18:49.742Z,99451.28
2022-12-24T05:24:12.059Z,99450.66
2022-12-24T05:29:15.235Z,99455.38
2022-12-24T05:34:18.223Z,99469.91
2022-12-24T05:39:21.442Z,99472.56
2022-12-24T05:44:24.336Z,99460.31
2022-12-24T05:49:27.546Z,99454.44
2022-12-24T05:54:30.613Z,99457.84
2022-12-24T05:59:33.674Z,99446.16
2022-12-24T06:04:37.837Z,99445.88
2022-12-24T06:09:40.729Z,99457.75
2022-12-24T06:14:43.662Z,99456.44
2022-12-24T06:19:46.545Z,99472.31
2022-12-24T06:24:49.429Z,99464.53
2022-12-24T06:29:52.369Z,99460.72
2022-12-24T06:34:55.221Z,99459.38
2022-12-24T06:39:58.081Z,99469.81
2022-12-24T06:45:07.634Z,99481.69
2022-12-24T06:50:12.042Z,99499.06
2022-12-24T06:55:15.174Z,99508.28
2022-12-24T07:00:18.670Z,99517.75
2022-12-24T07:05:22.813Z,99535.22
2022-12-24T07:10:25.814Z,99526.75
2022-12-24T07:15:29.159Z,99536.88
2022-12-24T07:20:32.281Z,99535.78
2022-12-24T07:25:35.584Z,99547.22
2022-12-24T07:30:38.620Z,99559.19
2022-12-24T07:35:41.331Z,99583.16
2022-12-24T07:40:44.219Z,99567.44
2022-12-24T07:45:47.140Z,99584.16
2022-12-24T07:50:51.118Z,99593.72
2022-12-24T07:55:54.341Z,99597.88
2022-12-24T08:01:01.024Z,99585.13
2022-12-24T08:06:04.370Z,99599.09
2022-12-24T08:11:07.931Z,99618.53
2022-12-24T08:16:11.052Z,99631.09
2022-12-24T08:21:14.311Z,99642.13
2022-12-24T08:26:17.383Z,99648.75
2022-12-24T08:31:20.421Z,99659.47
2022-12-24T08:36:23.457Z,99656.44
2022-12-24T08:41:26.378Z,99671.50
2022-12-24T08:46:29.368Z,99660.72
2022-12-24T08:51:32.392Z,99674.88
2022-12-24T08:56:35.566Z,99688.81
2022-12-24T09:01:39.070Z,99697.41
2022-12-24T09:06:42.080Z,99706.56
2022-12-24T09:11:45.699Z,99705.78
2022-12-24T09:16:49.731Z,99710.28
2022-12-24T09:21:52.828Z,99713.72
2022-12-24T09:26:57.907Z,99710.38
2022-12-24T09:32:01.262Z,99705.69
2022-12-24T09:37:04.413Z,99699.03
2022-12-24T09:42:37.501Z,99710.22
2022-12-24T09:47:52.828Z,99702.97
2022-12-24T09:52:57.503Z,99705.59
2022-12-24T09:58:04.456Z,99715.91
2022-12-24T10:03:16.735Z,99713.66
2022-12-24T10:08:41.375Z,99728.22
2022-12-24T10:14:26.557Z,99728.22
2022-12-24T10:20:17.460Z,99725.13
2022-12-24T10:25:34.538Z,99729.94
2022-12-24T10:30:37.478Z,99743.22
2022-12-24T10:35:49.101Z,99745.34
2022-12-24T10:40:56.121Z,99740.53
2022-12-24T10:46:04.845Z,99747.59
2022-12-24T10:51:35.802Z,99745.88
2022-12-24T10:57:04.687Z,99741.28
2022-12-24T11:02:38.120Z,99753.09
2022-12-24T11:07:41.580Z,99752.47
2022-12-24T11:13:05.789Z,99753.84
2022-12-24T11:18:16.025Z,99755.88
2022-12-24T11:23:21.023Z,99765.69
2022-12-24T11:28:33.686Z,99763.13
2022-12-24T11:33:52.904Z,99760.09
2022-12-24T11:38:58.464Z,99766.72
2022-12-24T11:44:07.908Z,99774.50
2022-12-24T11:49:37.239Z,99773.97
2022-12-24T11:55:18.126Z,99777.25
2022-12-24T12:00:21.307Z,99777.81
2022-12-24T12:05:43.126Z,99780.53
2022-12-24T12:10:49.641Z,99788.81
2022-12-24T12:16:05.847Z,99796.72
2022-12-24T12:21:21.229Z,99790.81
2022-12-24T12:26:32.321Z,99792.56
2022-12-24T12:31:53.778Z,99796.06
2022-12-24T12:37:15.249Z,99787.78
2022-12-24T12:42:35.673Z,99798.06
2022-12-24T12:48:08.343Z,99808.69
2022-12-24T12:53:24.266Z,99808.50
2022-12-24T12:58:33.266Z,99823.97
2022-12-24T13:04:05.891Z,99837.16
2022-12-24T13:09:17.628Z,99827.03
2022-12-24T13:15:04.164Z,99841.22
2022-12-24T13:20:14.934Z,99840.63
2022-12-24T13:25:45.253Z,99856.81
2022-12-24T13:30:53.308Z,99851.91
2022-12-24T13:36:16.665Z,99863.75
2022-12-24T13:41:41.184Z,99865.94
2022-12-24T13:47:25.402Z,99886.09
2022-12-24T13:52:32.872Z,99891.59
2022-12-24T13:57:45.459Z,99886.44
2022-12-24T14:03:04.513Z,99892.63
2022-12-24T14:08:26.390Z,99911.22
2022-12-24T14:13:38.511Z,99913.38
2022-12-24T14:18:46.122Z,99921.38
2022-12-24T14:24:14.270Z,99933.81
2022-12-24T14:29:32.060Z,99954.56
2022-12-24T14:34:34.954Z,99966.66
2022-12-24T14:39:48.105Z,99970.13
2022-12-24T14:45:09.244Z,99984.34
2022-12-24T14:50:40.544Z,99994.59
2022-12-24T14:55:45.986Z,99993.59
2022-12-24T15:00:49.942Z,100002.19
2022-12-24T15:06:19.192Z,100018.03
2022-12-24T15:11:24.396Z,100003.88
2022-12-24T15:16:37.179Z,100019.25
2022-12-24T15:21:44.293Z,100025.97
2022-12-24T15:26:47.316Z,100018.66
2022-12-24T15:32:02.112Z,100026.25
2022-12-24T15:37:19.649Z,100041.59
2022-12-24T15:42:24.464Z,100045.06
2022-12-24T15:47:39.700Z,100049.56
2022-12-24T15:52:44.026Z,100059.63
2022-12-24T15:57:47.627Z,100053.19
2022-12-24T16:02:51.117Z,100067.56
2022-12-24T16:08:16.877Z,100074.06
2022-12-24T16:13:29.175Z,100071.88
2022-12-24T16:18:36.806Z,100075.75
2022-12-24T16:23:48.741Z,100075.72
2022-12-24T16:28:51.669Z,100073.19
2022-12-24T16:33:57.926Z,100088.25
2022-12-24T16:39:20.468Z,100083.53
2022-12-24T16:44:23.450Z,100089.88
2022-12-24T16:49:27.278Z,100086.56
2022-12-24T16:54:30.210Z,100100.94
2022-12-24T16:59:33.025Z,100096.25
2022-12-24T17:04:36.320Z,100109.03
2022-12-24T17:09:39.231Z,100120.53
2022-12-24T17:14:42.556Z,100119.53
2022-12-24T17:19:45.429Z,100125.94
2022-12-24T17:24:48.850Z,100135.56
2022-12-24T17:29:52.163Z,100128.66
2022-12-24T17:34:55.030Z,100137.81
2022-12-24T17:39:57.986Z,100146.00
2022-12-24T17:45:01.038Z,100161.75
2022-12-24T17:50:04.601Z,100163.50
2022-12-24T17:55:09.049Z,100166.69
2022-12-24T18:00:13.195Z,100173.09
2022-12-24T18:05:16.328Z,100176.72
2022-12-24T18:10:19.602Z,100175.88
2022-12-24T18:15:22.993Z,100187.13
2022-12-24T18:20:26.094Z,100184.22
2022-12-24T18:25:28.931Z,100182.97
2022-12-24T18:30:32.086Z,100177.25
2022-12-24T18:35:34.845Z,100189.06
2022-12-24T18:40:38.041Z,100194.97
2022-12-24T18:45:43.103Z,100195.78
2022-12-24T18:50:56.709Z,100201.66
2022-12-24T18:56:11.108Z,100215.66
2022-12-24T19:01:33.012Z,100221.94
2022-12-24T19:06:36.975Z,100241.84
2022-12-24T19:11:40.643Z,100243.66
2022-12-24T19:16:43.717Z,100248.53
2022-12-24T19:21:47.607Z,100252.34
2022-12-24T19:26:51.020Z,100258.78
2022-12-24T19:31:54.208Z,100244.94
2022-12-24T19:36:57.258Z,100256.91
2022-12-24T19:42:01.320Z,100264.66
2022-12-24T19:47:04.655Z,100270.16
2022-12-24T19:52:07.987Z,100279.19
2022-12-24T19:57:11.793Z,100277.28
2022-12-24T20:02:14.734Z,100282.72
2022-12-24T20:07:17.858Z,100279.56
2022-12-24T20:12:20.806Z,100279.44
2022-12-24T20:17:24.044Z,100286.25
2022-12-24T20:22:27.045Z,100284.41
2022-12-24T20:27:30.161Z,100292.34
2022-12-24T20:32:33.205Z,100285.28
2022-12-24T20:37:45.711Z,100290.03
2022-12-24T20:42:49.500Z,100287.81
2022-12-24T20:47:52.449Z,100297.84
2022-12-24T20:52:55.385Z,100312.56
2022-12-24T20:57:58.506Z,100314.53
2022-12-24T21:03:01.709Z,100322.44
2022-12-24T21:08:04.912Z,100310.06
2022-12-24T21:13:08.419Z,100313.81
2022-12-24T21:18:12.021Z,100329.66
2022-12-24T21:23:14.907Z,100324.06
2022-12-24T21:28:18.465Z,100326.94
2022-12-24T21:33:21.776Z,100333.41
2022-12-24T21:38:26.014Z,100359.13
2022-12-24T21:43:33.861Z,100353.34
2022-12-24T21:48:56.877Z,100362.56
2022-12-24T21:54:18.766Z,100368.16
2022-12-24T21:59:26.358Z,100372.88
2022-12-24T22:04:32.463Z,100357.72
2022-12-24T22:09:56.981Z,100372.59
2022-12-24T22:15:00.108Z,100373.81
2022-12-24T22:20:03.956Z,100372.91
2022-12-24T22:25:10.165Z,100377.13
2022-12-24T22:30:13.308Z,100387.47
2022-12-24T22:35:17.071Z,100388.06
2022-12-24T22:40:19.976Z,100385.63
2022-12-24T22:45:23.085Z,100399.91
2022-12-24T22:50:27.341Z,100401.88
2022-12-24T22:55:30.240Z,100399.75
2022-12-24T23:00:51.508Z,100401.19
2022-12-24T23:06:03.946Z,100392.00
2022-12-24T23:11:14.503Z,100410.13
2022-12-24T23:16:17.503Z,100406.09
2022-12-24T23:21:20.677Z,100411.59
2022-12-24T23:26:24.369Z,100405.78
2022-12-24T23:31:27.728Z,100414.75
2022-12-24T23:36:30.667Z,100419.31
2022-12-24T23:41:33.711Z,100416.03
2022-12-24T23:46:39.163Z,100424.72
2022-12-24T23:51:42.585Z,100418.25
2022-12-24T23:56:45.689Z,100427.44
